YPB weather

Alberni Valley Regional Airport
Port Alberni, British Columbia, Canada

Public forecast

Using degrees Celsius for public forecast. Weather courtesy of forecast.io.

METAR (pilot weather report)

Closest report is Comox Airport, 23.4 nm (43.4 km) N. Retrieved 2019/09/19 09:00 UTC (23 minutes ago):

CYQQ 190900Z 30005KT 20SM FEW230 12/10 A3004 RMK CI2 SLP172

TAF (pilot weather forecast)

Closest forecast is Comox Airport, 23.4 nm (43.4 km) N. Retrieved 2019/09/19 06:42 UTC (3 hours ago):

TAF CYQQ 190539Z 1906/2006 VRB03KT P6SM SKC FM190800 30005KT P6SM FEW012 SCT250 FM191000 32005KT P6SM SCT012 BKN200 TEMPO 1910/1917 5SM BR BKN012 FM191700 36008KT P6SM FEW012 BKN100 FM192200 VRB03KT P6SM BKN040 OVC100 RMK NXT FCST BY 191200Z